Observations de surface / UK / EGVN

Québec | Canada | États-Unis | France | UK | Europe | Ailleurs

Affichage: Infos & localisation pour EGVN | Aide pour décoder les METARs

EGVN BRIZE NORTON RA -- UK
Raw surface observations for station EGVN
EGVN 211650Z 23001KT 4000 HZ FEW020 00/M01 Q1025 GRN BECMG 6000 WHT=
EGVN 211550Z 19001KT 8000 HZ FEW007 03/00 Q1025 BLU BECMG 9999 NSW BLU=
EGVN 211450Z 11002KT 6000 HZ FEW007 03/01 Q1025 WHT BECMG 9999 NSW BLU=
EGVN 211350Z 08005KT 4500 HZ FEW006 02/00 Q1026 GRN BECMG 6000 WHT=
EGVN 211250Z 07007KT 5000 HZ SCT007 SCT020 02/00 Q1026 GRN BECMG FEW007 WHT=
EGVN 211150Z 10006KT 9999 FEW010 SCT020 02/00 Q1027 WHT BECMG FEW022 BLU=
EGVN 211050Z 07007KT 9999 FEW008 SCT018 01/M00 Q1028 WHT BECMG FEW020 BLU=
EGVN 210950Z 06003KT CAVOK 00/M01 Q1028 NOSIG=
EGVN 210850Z 04006KT 9999 6000S HZ FEW200 M01/M02 Q1028 WHT BECMG 9999 NSW BLU=
EGVN 210750Z 04006KT 6000 HZ FEW200 M01/M02 Q1028 WHT NOSIG=
EGVN 210650Z 05007KT 8000 HZ SKC M01/M02 Q1028 TEMPO 7000 HZ=
EGVN 210550Z 06005KT 8000 HZ SKC M01/M02 Q1028 TEMPO 7000 HZ=
EGVN 210450Z 04005KT 8000 HZ SKC M01/M02 Q1028 TEMPO 7000 HZ=
EGVN 210350Z 05006KT 8000 HZ SKC M01/M02 Q1029 TEMPO 7000 HZ=
EGVN 210250Z 03007KT CAVOK M01/M02 Q1029 TEMPO 7000 HZ=
EGVN 210150Z 06006KT CAVOK 00/M01 Q1030 TEMPO 7000 HZ=
EGVN 210050Z 05007KT CAVOK M00/M01 Q1030 TEMPO 7000 HZ=
EGVN 202350Z 06008KT CAVOK 01/M01 Q1030 NOSIG=
EGVN 202250Z 06006KT CAVOK 01/M01 Q1031 NOSIG=
EGVN 202150Z 06007KT CAVOK 01/M01 Q1031 NOSIG=
EGVN 202050Z 05007KT CAVOK 02/M01 Q1031 NOSIG=
EGVN 201950Z 05008KT CAVOK 02/M01 Q1031 NOSIG=
EGVN 201850Z 04006KT CAVOK 02/M01 Q1031 NOSIG=
EGVN 201750Z 05007KT CAVOK 02/M02 Q1031 NOSIG=